• Join FlightAware (Why Join?)
  • Login
  • US Flag 
10:13AM EDT


 

Airport Tracker/Info


-or-


 

Live Flight TrackerFlight Track Log ✈ EJA929 ✈ 09-Oct-2013 ✈ KIAH - KDAL

Flight Track Log - Related Links

Times and Time Zones

All times are in EDT time to prevent confusion due to time zone crossing. See the EJA929 flight status page for this flight to view local times or setup timezone preferences in your user account.

Time Position Orientation Groundspeed Altitude Reporting Facility
EDT Latitude Longitude Course Direction KTS MPH feet Rate Location/Type
04:14PM 29.9661 -95.3456 218° Southwest 180 207 800  Level Houston Center
04:15PM 29.9350 -95.3733 218° Southwest 250 288 2,800 1,920 Climbing Houston Center
04:16PM 29.9858 -95.4228 320° Northwest 284 327 4,000 1,200 Climbing Houston Center
04:16PM 29.9892 -95.4225 North 284 327 4,000 4,740 Level Houston Center
04:17PM 30.0644 -95.4306 355° North 270 311 9,300 3,960 Climbing Houston Center
04:18PM 30.1561 -95.4378 356° North 333 383 12,300 2,640 Climbing Houston Center
04:19PM 30.2656 -95.4481 355° North 387 445 14,800 2,400 Climbing Houston Center
04:20PM 30.3844 -95.4583 356° North 422 486 17,300 2,340 Climbing Houston Center
04:21PM 30.5022 -95.4678 356° North 426 490 19,700 2,160 Climbing Houston Center
04:22PM 30.6408 -95.4989 349° North 420 483 21,800 1,620 Climbing Houston Center
04:23PM 30.7472 -95.5236 349° North 428 493 23,100 1,020 Climbing Houston Center
04:24PM 30.8942 -95.5556 349° North 441 507 24,000 420 Climbing Houston Center
04:25PM 31.0264 -95.5858 349° North 472 543 24,000  Level Houston Center
04:26PM 31.1639 -95.6172 349° North 493 567 24,000  Level Houston Center
04:27PM 31.2956 -95.6472 349° North 483 556 24,000  Level Houston Center
04:28PM 31.4161 -95.7017 339° North 468 539 24,000  Level Houston Center
04:29PM 31.5281 -95.7753 331° Northwest 458 527 24,000  Level Houston Center
04:30PM 31.6411 -95.8503 331° Northwest 462 532 24,000 -240 Level Houston Center
04:31PM 31.7747 -95.9400 330° Northwest 460 529 23,500 -1,440 Descending Houston Center
04:32PM 31.8872 -96.0158 330° Northwest 463 533 21,100 -2,400 Descending Houston Center
04:33PM 31.9992 -96.0892 331° Northwest 459 528 18,600 -2,340 Descending Houston Center
04:34PM 32.1044 -96.1625 329° Northwest 433 498 16,300 -2,160 Descending Houston Center
04:35PM 32.1972 -96.2275 329° Northwest 429 494 14,300 -2,220 Descending Fort Worth Center
04:36PM 32.2981 -96.2878 333° Northwest 409 471 12,000 -2,280 Descending Fort Worth Center
04:37PM 32.4072 -96.3528 333° Northwest 403 464 9,800 -1,560 Descending Fort Worth Center
04:38PM 32.4786 -96.3964 333° Northwest 354 407 8,900 -1,440 Descending Fort Worth Center
04:39PM 32.5603 -96.4447 333° Northwest 301 346 7,000 -1,860 Descending Fort Worth Center
04:40PM 32.6233 -96.4836 333° Northwest 284 327 5,200 -1,020 Descending Fort Worth Center
04:41PM 32.6947 -96.5369 328° Northwest 279 321 5,000 -120 Descending Fort Worth Center
04:42PM 32.7492 -96.5883 322° Northwest 279 321 5,000  Level Fort Worth Center
04:43PM 32.8144 -96.6544 320° Northwest 279 321 5,000 -540 Level Fort Worth Center
04:44PM 32.8669 -96.7086 319° Northwest 279 321 4,000 -960 Descending Fort Worth Center
04:45PM 32.9167 -96.7667 316° Northwest 236 272 3,200 -480 Descending Dallas / Fort Worth TRACON
04:46PM 32.9333 -96.8333 287° West 209 241 3,100 -600 Descending Dallas / Fort Worth TRACON
04:47PM 32.9167 -96.9000 253° West 175 201 2,000 -900 Descending Dallas / Fort Worth TRACON
04:48PM 32.8833 -96.8833 157° South 145 167 1,300 -720 Descending Dallas / Fort Worth TRACON